sensor_id;sensor_type;location;lat;lon;timestamp;P1;durP1;ratioP1;P2;durP2;ratioP2
7899;SDS011;3995;50.856;4.404;2022-08-01T00:02:18;1.80;;;1.33;;
7899;SDS011;3995;50.856;4.404;2022-08-01T00:04:45;2.97;;;1.60;;
7899;SDS011;3995;50.856;4.404;2022-08-01T00:07:13;3.00;;;2.10;;
7899;SDS011;3995;50.856;4.404;2022-08-01T00:09:40;3.30;;;1.93;;
7899;SDS011;3995;50.856;4.404;2022-08-01T00:12:08;5.70;;;1.77;;
7899;SDS011;3995;50.856;4.404;2022-08-01T00:14:35;4.20;;;2.27;;
7899;SDS011;3995;50.856;4.404;2022-08-01T00:17:02;6.00;;;2.37;;
7899;SDS011;3995;50.856;4.404;2022-08-01T00:19:30;6.97;;;2.57;;
7899;SDS011;3995;50.856;4.404;2022-08-01T00:21:57;3.67;;;2.00;;
7899;SDS011;3995;50.856;4.404;2022-08-01T00:24:25;4.50;;;2.30;;
7899;SDS011;3995;50.856;4.404;2022-08-01T00:26:52;4.00;;;2.33;;
7899;SDS011;3995;50.856;4.404;2022-08-01T00:29:20;4.53;;;2.83;;
7899;SDS011;3995;50.856;4.404;2022-08-01T00:31:47;7.00;;;2.60;;
7899;SDS011;3995;50.856;4.404;2022-08-01T00:34:14;4.97;;;2.70;;
7899;SDS011;3995;50.856;4.404;2022-08-01T00:36:41;7.57;;;2.67;;
7899;SDS011;3995;50.856;4.404;2022-08-01T00:39:08;4.23;;;2.30;;
7899;SDS011;3995;50.856;4.404;2022-08-01T00:41:38;10.33;;;3.73;;
7899;SDS011;3995;50.856;4.404;2022-08-01T00:44:05;6.13;;;3.17;;
7899;SDS011;3995;50.856;4.404;2022-08-01T00:46:35;4.07;;;2.73;;
7899;SDS011;3995;50.856;4.404;2022-08-01T00:49:02;8.13;;;3.00;;
7899;SDS011;3995;50.856;4.404;2022-08-01T00:51:29;7.63;;;2.80;;
7899;SDS011;3995;50.856;4.404;2022-08-01T00:53:58;6.97;;;3.00;;
7899;SDS011;3995;50.856;4.404;2022-08-01T00:56:26;4.43;;;2.57;;
7899;SDS011;3995;50.856;4.404;2022-08-01T00:58:54;3.43;;;2.30;;
7899;SDS011;3995;50.856;4.404;2022-08-01T01:01:21;7.37;;;3.10;;
7899;SDS011;3995;50.856;4.404;2022-08-01T01:03:51;6.10;;;2.70;;
7899;SDS011;3995;50.856;4.404;2022-08-01T01:06:25;4.43;;;2.33;;
7899;SDS011;3995;50.856;4.404;2022-08-01T01:09:13;13.03;;;2.47;;
7899;SDS011;3995;50.856;4.404;2022-08-01T01:11:47;7.80;;;2.87;;
7899;SDS011;3995;50.856;4.404;2022-08-01T01:17:11;2.97;;;2.10;;
7899;SDS011;3995;50.856;4.404;2022-08-01T01:19:44;3.93;;;2.57;;
7899;SDS011;3995;50.856;4.404;2022-08-01T01:22:18;6.20;;;2.50;;
7899;SDS011;3995;50.856;4.404;2022-08-01T01:27:47;6.77;;;2.30;;
7899;SDS011;3995;50.856;4.404;2022-08-01T01:30:25;5.80;;;3.23;;
7899;SDS011;3995;50.856;4.404;2022-08-01T01:32:58;6.20;;;3.90;;
7899;SDS011;3995;50.856;4.404;2022-08-01T01:35:30;6.20;;;3.13;;
7899;SDS011;3995;50.856;4.404;2022-08-01T01:38:01;5.07;;;2.83;;
7899;SDS011;3995;50.856;4.404;2022-08-01T01:40:34;6.10;;;4.10;;
7899;SDS011;3995;50.856;4.404;2022-08-01T01:43:02;8.33;;;4.47;;
7899;SDS011;3995;50.856;4.404;2022-08-01T01:45:32;5.90;;;4.50;;
7899;SDS011;3995;50.856;4.404;2022-08-01T01:47:59;6.60;;;4.83;;
7899;SDS011;3995;50.856;4.404;2022-08-01T01:50:28;7.33;;;4.57;;
7899;SDS011;3995;50.856;4.404;2022-08-01T01:52:55;9.80;;;5.17;;
7899;SDS011;3995;50.856;4.404;2022-08-01T01:55:25;9.50;;;5.73;;
7899;SDS011;3995;50.856;4.404;2022-08-01T01:57:53;12.30;;;6.90;;
7899;SDS011;3995;50.856;4.404;2022-08-01T02:00:23;10.27;;;6.00;;
7899;SDS011;3995;50.856;4.404;2022-08-01T02:02:54;12.37;;;6.93;;
7899;SDS011;3995;50.856;4.404;2022-08-01T02:05:23;9.50;;;6.67;;
7899;SDS011;3995;50.856;4.404;2022-08-01T02:07:51;7.70;;;6.23;;
7899;SDS011;3995;50.856;4.404;2022-08-01T02:10:21;10.90;;;5.83;;
7899;SDS011;3995;50.856;4.404;2022-08-01T02:12:49;11.43;;;6.10;;
7899;SDS011;3995;50.856;4.404;2022-08-01T02:15:17;13.27;;;6.30;;
7899;SDS011;3995;50.856;4.404;2022-08-01T02:17:47;8.60;;;5.97;;
7899;SDS011;3995;50.856;4.404;2022-08-01T02:20:17;9.37;;;6.10;;
7899;SDS011;3995;50.856;4.404;2022-08-01T02:22:47;14.93;;;7.50;;
7899;SDS011;3995;50.856;4.404;2022-08-01T02:25:19;12.17;;;6.50;;
7899;SDS011;3995;50.856;4.404;2022-08-01T02:27:50;10.47;;;5.80;;
7899;SDS011;3995;50.856;4.404;2022-08-01T02:30:21;13.30;;;6.63;;
7899;SDS011;3995;50.856;4.404;2022-08-01T02:32:53;10.10;;;5.40;;
7899;SDS011;3995;50.856;4.404;2022-08-01T02:35:29;11.77;;;6.97;;
7899;SDS011;3995;50.856;4.404;2022-08-01T02:37:58;12.00;;;7.00;;
7899;SDS011;3995;50.856;4.404;2022-08-01T02:40:28;12.63;;;6.67;;
7899;SDS011;3995;50.856;4.404;2022-08-01T02:42:57;10.20;;;6.33;;
7899;SDS011;3995;50.856;4.404;2022-08-01T02:45:27;12.43;;;7.23;;
7899;SDS011;3995;50.856;4.404;2022-08-01T02:47:57;13.43;;;6.80;;
7899;SDS011;3995;50.856;4.404;2022-08-01T02:50:29;13.50;;;8.00;;
7899;SDS011;3995;50.856;4.404;2022-08-01T02:52:58;13.43;;;7.30;;
7899;SDS011;3995;50.856;4.404;2022-08-01T02:55:26;16.20;;;8.97;;
7899;SDS011;3995;50.856;4.404;2022-08-01T02:57:55;15.50;;;8.60;;
7899;SDS011;3995;50.856;4.404;2022-08-01T03:00:24;13.60;;;8.53;;
7899;SDS011;3995;50.856;4.404;2022-08-01T03:02:54;12.20;;;7.70;;
7899;SDS011;3995;50.856;4.404;2022-08-01T03:05:23;15.43;;;8.90;;
7899;SDS011;3995;50.856;4.404;2022-08-01T03:07:53;15.23;;;7.80;;
7899;SDS011;3995;50.856;4.404;2022-08-01T03:10:22;14.23;;;7.33;;
7899;SDS011;3995;50.856;4.404;2022-08-01T03:12:52;18.27;;;7.47;;
7899;SDS011;3995;50.856;4.404;2022-08-01T03:15:21;14.20;;;7.43;;
7899;SDS011;3995;50.856;4.404;2022-08-01T03:17:51;13.70;;;8.03;;
7899;SDS011;3995;50.856;4.404;2022-08-01T03:20:21;12.63;;;7.60;;
7899;SDS011;3995;50.856;4.404;2022-08-01T03:22:53;18.20;;;7.13;;
7899;SDS011;3995;50.856;4.404;2022-08-01T03:25:22;9.80;;;6.87;;
7899;SDS011;3995;50.856;4.404;2022-08-01T03:27:52;18.73;;;7.60;;
7899;SDS011;3995;50.856;4.404;2022-08-01T03:30:22;12.63;;;7.50;;
7899;SDS011;3995;50.856;4.404;2022-08-01T03:32:51;14.10;;;6.43;;
7899;SDS011;3995;50.856;4.404;2022-08-01T03:35:18;10.57;;;6.70;;
7899;SDS011;3995;50.856;4.404;2022-08-01T03:37:47;12.60;;;6.80;;
7899;SDS011;3995;50.856;4.404;2022-08-01T03:40:20;16.07;;;7.07;;
7899;SDS011;3995;50.856;4.404;2022-08-01T03:42:52;9.93;;;5.73;;
7899;SDS011;3995;50.856;4.404;2022-08-01T03:45:25;15.07;;;7.13;;
7899;SDS011;3995;50.856;4.404;2022-08-01T03:47:55;18.20;;;7.20;;
7899;SDS011;3995;50.856;4.404;2022-08-01T03:50:25;11.23;;;6.80;;
7899;SDS011;3995;50.856;4.404;2022-08-01T03:52:57;14.10;;;6.97;;
7899;SDS011;3995;50.856;4.404;2022-08-01T03:55:27;12.63;;;7.17;;
7899;SDS011;3995;50.856;4.404;2022-08-01T03:57:56;9.80;;;5.70;;
7899;SDS011;3995;50.856;4.404;2022-08-01T04:00:24;12.80;;;6.33;;
7899;SDS011;3995;50.856;4.404;2022-08-01T04:02:51;13.77;;;7.67;;
7899;SDS011;3995;50.856;4.404;2022-08-01T04:05:19;11.90;;;6.60;;
7899;SDS011;3995;50.856;4.404;2022-08-01T04:07:48;9.67;;;6.03;;
7899;SDS011;3995;50.856;4.404;2022-08-01T04:10:21;12.90;;;7.47;;
7899;SDS011;3995;50.856;4.404;2022-08-01T04:12:50;13.63;;;7.13;;
7899;SDS011;3995;50.856;4.404;2022-08-01T04:15:17;9.73;;;6.90;;
7899;SDS011;3995;50.856;4.404;2022-08-01T04:17:45;12.33;;;6.97;;
7899;SDS011;3995;50.856;4.404;2022-08-01T04:20:13;9.23;;;6.00;;
7899;SDS011;3995;50.856;4.404;2022-08-01T04:22:40;11.03;;;6.80;;
7899;SDS011;3995;50.856;4.404;2022-08-01T04:25:09;9.80;;;7.00;;
7899;SDS011;3995;50.856;4.404;2022-08-01T04:27:40;9.80;;;7.30;;
7899;SDS011;3995;50.856;4.404;2022-08-01T04:30:13;13.27;;;7.77;;
7899;SDS011;3995;50.856;4.404;2022-08-01T04:32:42;10.00;;;7.20;;
7899;SDS011;3995;50.856;4.404;2022-08-01T04:35:11;16.93;;;7.87;;
7899;SDS011;3995;50.856;4.404;2022-08-01T04:37:42;9.33;;;6.70;;
7899;SDS011;3995;50.856;4.404;2022-08-01T04:40:13;14.20;;;7.90;;
7899;SDS011;3995;50.856;4.404;2022-08-01T04:42:41;8.43;;;7.03;;
7899;SDS011;3995;50.856;4.404;2022-08-01T04:45:08;11.30;;;7.80;;
7899;SDS011;3995;50.856;4.404;2022-08-01T04:47:38;9.60;;;7.57;;
7899;SDS011;3995;50.856;4.404;2022-08-01T04:50:08;10.57;;;8.40;;
7899;SDS011;3995;50.856;4.404;2022-08-01T04:52:36;11.63;;;9.20;;
7899;SDS011;3995;50.856;4.404;2022-08-01T04:55:07;11.73;;;8.20;;
7899;SDS011;3995;50.856;4.404;2022-08-01T04:57:36;9.33;;;7.80;;
7899;SDS011;3995;50.856;4.404;2022-08-01T05:00:06;11.60;;;8.73;;
7899;SDS011;3995;50.856;4.404;2022-08-01T05:02:34;13.47;;;9.30;;
7899;SDS011;3995;50.856;4.404;2022-08-01T05:05:02;16.87;;;9.37;;
7899;SDS011;3995;50.856;4.404;2022-08-01T05:07:31;12.80;;;8.37;;
7899;SDS011;3995;50.856;4.404;2022-08-01T05:09:58;15.13;;;9.90;;
7899;SDS011;3995;50.856;4.404;2022-08-01T05:12:26;11.53;;;8.20;;
7899;SDS011;3995;50.856;4.404;2022-08-01T05:14:53;12.93;;;9.30;;
7899;SDS011;3995;50.856;4.404;2022-08-01T05:17:20;17.53;;;8.77;;
7899;SDS011;3995;50.856;4.404;2022-08-01T05:19:48;10.40;;;8.53;;
7899;SDS011;3995;50.856;4.404;2022-08-01T05:22:16;13.30;;;8.50;;
7899;SDS011;3995;50.856;4.404;2022-08-01T05:24:44;13.43;;;8.10;;
7899;SDS011;3995;50.856;4.404;2022-08-01T05:27:12;10.50;;;7.47;;
7899;SDS011;3995;50.856;4.404;2022-08-01T05:29:39;11.40;;;7.23;;
7899;SDS011;3995;50.856;4.404;2022-08-01T05:32:06;10.43;;;6.23;;
7899;SDS011;3995;50.856;4.404;2022-08-01T05:34:34;10.00;;;7.13;;
7899;SDS011;3995;50.856;4.404;2022-08-01T05:37:01;9.63;;;7.20;;
7899;SDS011;3995;50.856;4.404;2022-08-01T05:39:30;10.30;;;6.90;;
7899;SDS011;3995;50.856;4.404;2022-08-01T05:41:58;8.70;;;7.10;;
7899;SDS011;3995;50.856;4.404;2022-08-01T05:44:25;7.97;;;6.30;;
7899;SDS011;3995;50.856;4.404;2022-08-01T05:46:52;10.83;;;6.43;;
7899;SDS011;3995;50.856;4.404;2022-08-01T05:49:20;8.87;;;6.93;;
7899;SDS011;3995;50.856;4.404;2022-08-01T05:51:47;8.57;;;7.13;;
7899;SDS011;3995;50.856;4.404;2022-08-01T05:54:15;6.83;;;6.13;;
7899;SDS011;3995;50.856;4.404;2022-08-01T05:56:44;16.37;;;7.20;;
7899;SDS011;3995;50.856;4.404;2022-08-01T05:59:11;7.83;;;6.00;;
7899;SDS011;3995;50.856;4.404;2022-08-01T06:01:38;12.10;;;6.60;;
7899;SDS011;3995;50.856;4.404;2022-08-01T06:04:06;8.23;;;6.67;;
7899;SDS011;3995;50.856;4.404;2022-08-01T06:06:33;7.47;;;6.43;;
7899;SDS011;3995;50.856;4.404;2022-08-01T06:09:00;9.13;;;5.90;;
7899;SDS011;3995;50.856;4.404;2022-08-01T06:11:27;7.97;;;5.90;;
7899;SDS011;3995;50.856;4.404;2022-08-01T06:13:55;8.10;;;5.87;;
7899;SDS011;3995;50.856;4.404;2022-08-01T06:16:22;10.10;;;7.00;;
7899;SDS011;3995;50.856;4.404;2022-08-01T06:18:49;10.50;;;5.90;;
7899;SDS011;3995;50.856;4.404;2022-08-01T06:21:17;6.77;;;5.63;;
7899;SDS011;3995;50.856;4.404;2022-08-01T06:23:44;7.67;;;5.77;;
7899;SDS011;3995;50.856;4.404;2022-08-01T06:26:11;14.20;;;5.87;;
7899;SDS011;3995;50.856;4.404;2022-08-01T06:28:39;6.03;;;5.43;;
7899;SDS011;3995;50.856;4.404;2022-08-01T06:31:07;8.97;;;6.37;;
7899;SDS011;3995;50.856;4.404;2022-08-01T06:33:36;8.53;;;5.33;;
7899;SDS011;3995;50.856;4.404;2022-08-01T06:36:03;12.37;;;7.07;;
7899;SDS011;3995;50.856;4.404;2022-08-01T06:38:30;8.83;;;5.20;;
7899;SDS011;3995;50.856;4.404;2022-08-01T06:40:57;6.60;;;5.73;;
7899;SDS011;3995;50.856;4.404;2022-08-01T06:43:24;7.13;;;5.43;;
7899;SDS011;3995;50.856;4.404;2022-08-01T06:45:52;9.93;;;4.70;;
7899;SDS011;3995;50.856;4.404;2022-08-01T06:48:20;7.33;;;4.40;;
7899;SDS011;3995;50.856;4.404;2022-08-01T06:50:48;8.90;;;4.93;;
7899;SDS011;3995;50.856;4.404;2022-08-01T06:53:32;6.83;;;5.27;;
7899;SDS011;3995;50.856;4.404;2022-08-01T06:55:59;8.50;;;4.43;;
7899;SDS011;3995;50.856;4.404;2022-08-01T06:58:26;11.93;;;4.67;;
7899;SDS011;3995;50.856;4.404;2022-08-01T07:00:53;5.43;;;3.90;;
7899;SDS011;3995;50.856;4.404;2022-08-01T07:03:22;7.80;;;4.10;;
7899;SDS011;3995;50.856;4.404;2022-08-01T07:05:50;7.27;;;4.60;;
7899;SDS011;3995;50.856;4.404;2022-08-01T07:08:17;6.37;;;4.40;;
7899;SDS011;3995;50.856;4.404;2022-08-01T07:10:44;5.40;;;3.70;;
7899;SDS011;3995;50.856;4.404;2022-08-01T07:13:12;6.70;;;3.93;;
7899;SDS011;3995;50.856;4.404;2022-08-01T07:15:41;3.47;;;2.87;;
7899;SDS011;3995;50.856;4.404;2022-08-01T07:18:08;4.13;;;3.30;;
7899;SDS011;3995;50.856;4.404;2022-08-01T07:20:38;8.80;;;3.10;;
7899;SDS011;3995;50.856;4.404;2022-08-01T07:23:05;5.10;;;3.47;;
7899;SDS011;3995;50.856;4.404;2022-08-01T07:25:33;3.30;;;2.93;;
7899;SDS011;3995;50.856;4.404;2022-08-01T07:28:00;3.30;;;2.80;;
7899;SDS011;3995;50.856;4.404;2022-08-01T07:30:27;3.70;;;2.70;;
7899;SDS011;3995;50.856;4.404;2022-08-01T07:32:54;4.03;;;2.83;;
7899;SDS011;3995;50.856;4.404;2022-08-01T07:35:21;4.57;;;3.17;;
7899;SDS011;3995;50.856;4.404;2022-08-01T07:37:50;3.73;;;2.90;;
7899;SDS011;3995;50.856;4.404;2022-08-01T07:40:18;7.33;;;2.90;;
7899;SDS011;3995;50.856;4.404;2022-08-01T07:42:46;4.50;;;3.33;;
7899;SDS011;3995;50.856;4.404;2022-08-01T07:45:13;8.90;;;3.10;;
7899;SDS011;3995;50.856;4.404;2022-08-01T07:47:41;5.90;;;3.63;;
7899;SDS011;3995;50.856;4.404;2022-08-01T07:50:08;5.87;;;3.77;;
7899;SDS011;3995;50.856;4.404;2022-08-01T07:52:37;4.80;;;3.80;;
7899;SDS011;3995;50.856;4.404;2022-08-01T07:55:08;3.80;;;3.00;;
7899;SDS011;3995;50.856;4.404;2022-08-01T07:57:35;4.50;;;3.40;;
7899;SDS011;3995;50.856;4.404;2022-08-01T08:00:03;4.43;;;3.30;;
7899;SDS011;3995;50.856;4.404;2022-08-01T08:02:33;4.13;;;3.17;;
7899;SDS011;3995;50.856;4.404;2022-08-01T08:05:00;3.93;;;3.07;;
7899;SDS011;3995;50.856;4.404;2022-08-01T08:07:28;3.20;;;2.47;;
7899;SDS011;3995;50.856;4.404;2022-08-01T08:09:55;3.70;;;2.30;;
7899;SDS011;3995;50.856;4.404;2022-08-01T08:12:25;3.03;;;2.17;;
7899;SDS011;3995;50.856;4.404;2022-08-01T08:14:52;3.10;;;1.93;;
7899;SDS011;3995;50.856;4.404;2022-08-01T08:17:19;3.43;;;1.70;;
7899;SDS011;3995;50.856;4.404;2022-08-01T08:19:46;4.07;;;2.67;;
7899;SDS011;3995;50.856;4.404;2022-08-01T08:22:13;2.63;;;1.80;;
7899;SDS011;3995;50.856;4.404;2022-08-01T08:24:41;2.43;;;1.60;;
7899;SDS011;3995;50.856;4.404;2022-08-01T08:27:07;3.90;;;2.13;;
7899;SDS011;3995;50.856;4.404;2022-08-01T08:29:36;3.60;;;1.60;;
7899;SDS011;3995;50.856;4.404;2022-08-01T08:32:03;2.70;;;1.83;;
7899;SDS011;3995;50.856;4.404;2022-08-01T08:34:31;5.90;;;1.73;;
7899;SDS011;3995;50.856;4.404;2022-08-01T08:36:58;3.03;;;2.03;;
7899;SDS011;3995;50.856;4.404;2022-08-01T08:39:26;2.80;;;2.37;;
7899;SDS011;3995;50.856;4.404;2022-08-01T08:41:54;3.70;;;2.50;;
7899;SDS011;3995;50.856;4.404;2022-08-01T08:44:23;1.60;;;1.23;;
7899;SDS011;3995;50.856;4.404;2022-08-01T08:46:52;8.60;;;3.10;;
7899;SDS011;3995;50.856;4.404;2022-08-01T08:49:22;1.50;;;1.33;;
7899;SDS011;3995;50.856;4.404;2022-08-01T08:51:52;1.90;;;1.67;;
7899;SDS011;3995;50.856;4.404;2022-08-01T08:54:20;3.47;;;1.60;;
7899;SDS011;3995;50.856;4.404;2022-08-01T08:56:49;3.63;;;1.43;;
7899;SDS011;3995;50.856;4.404;2022-08-01T08:59:18;1.47;;;1.17;;
7899;SDS011;3995;50.856;4.404;2022-08-01T09:01:46;4.50;;;1.53;;
7899;SDS011;3995;50.856;4.404;2022-08-01T09:04:16;2.00;;;1.50;;
7899;SDS011;3995;50.856;4.404;2022-08-01T09:06:43;2.33;;;1.30;;
7899;SDS011;3995;50.856;4.404;2022-08-01T09:09:10;2.40;;;1.60;;
7899;SDS011;3995;50.856;4.404;2022-08-01T09:11:38;5.73;;;1.30;;
7899;SDS011;3995;50.856;4.404;2022-08-01T09:14:07;3.10;;;1.47;;
7899;SDS011;3995;50.856;4.404;2022-08-01T09:16:37;2.27;;;1.40;;
7899;SDS011;3995;50.856;4.404;2022-08-01T09:19:11;2.17;;;1.50;;
7899;SDS011;3995;50.856;4.404;2022-08-01T09:21:54;2.60;;;1.80;;
7899;SDS011;3995;50.856;4.404;2022-08-01T09:24:23;3.53;;;1.43;;
7899;SDS011;3995;50.856;4.404;2022-08-01T09:26:51;4.20;;;1.53;;
7899;SDS011;3995;50.856;4.404;2022-08-01T09:29:19;3.20;;;1.60;;
7899;SDS011;3995;50.856;4.404;2022-08-01T09:31:48;1.60;;;1.33;;
7899;SDS011;3995;50.856;4.404;2022-08-01T09:34:15;1.40;;;1.20;;
7899;SDS011;3995;50.856;4.404;2022-08-01T09:36:48;2.63;;;1.50;;
7899;SDS011;3995;50.856;4.404;2022-08-01T09:39:21;2.63;;;1.43;;
7899;SDS011;3995;50.856;4.404;2022-08-01T09:41:50;3.40;;;1.70;;
7899;SDS011;3995;50.856;4.404;2022-08-01T09:44:18;3.57;;;1.60;;
7899;SDS011;3995;50.856;4.404;2022-08-01T09:46:49;2.30;;;1.50;;
7899;SDS011;3995;50.856;4.404;2022-08-01T09:49:28;2.33;;;1.30;;
7899;SDS011;3995;50.856;4.404;2022-08-01T09:51:58;8.37;;;1.77;;
7899;SDS011;3995;50.856;4.404;2022-08-01T09:54:35;2.17;;;1.63;;
7899;SDS011;3995;50.856;4.404;2022-08-01T09:57:09;6.67;;;2.67;;
7899;SDS011;3995;50.856;4.404;2022-08-01T09:59:39;14.97;;;2.80;;
7899;SDS011;3995;50.856;4.404;2022-08-01T10:02:09;3.33;;;1.40;;
7899;SDS011;3995;50.856;4.404;2022-08-01T10:04:46;3.43;;;1.33;;
7899;SDS011;3995;50.856;4.404;2022-08-01T10:07:17;1.90;;;1.40;;
7899;SDS011;3995;50.856;4.404;2022-08-01T10:09:45;1.67;;;1.00;;
7899;SDS011;3995;50.856;4.404;2022-08-01T10:12:14;4.30;;;1.47;;
7899;SDS011;3995;50.856;4.404;2022-08-01T10:14:43;1.60;;;1.00;;
7899;SDS011;3995;50.856;4.404;2022-08-01T10:17:12;2.23;;;1.50;;
7899;SDS011;3995;50.856;4.404;2022-08-01T10:19:41;1.67;;;1.20;;
7899;SDS011;3995;50.856;4.404;2022-08-01T10:22:10;2.20;;;1.37;;
7899;SDS011;3995;50.856;4.404;2022-08-01T10:24:43;3.70;;;1.30;;
7899;SDS011;3995;50.856;4.404;2022-08-01T10:27:13;1.87;;;1.33;;
7899;SDS011;3995;50.856;4.404;2022-08-01T10:29:42;2.40;;;1.10;;
7899;SDS011;3995;50.856;4.404;2022-08-01T10:32:14;3.57;;;1.07;;
7899;SDS011;3995;50.856;4.404;2022-08-01T10:34:42;2.03;;;1.10;;
7899;SDS011;3995;50.856;4.404;2022-08-01T10:37:10;1.63;;;1.00;;
7899;SDS011;3995;50.856;4.404;2022-08-01T10:39:38;1.73;;;1.40;;
7899;SDS011;3995;50.856;4.404;2022-08-01T10:42:09;1.53;;;1.13;;
7899;SDS011;3995;50.856;4.404;2022-08-01T10:44:37;1.70;;;1.40;;
7899;SDS011;3995;50.856;4.404;2022-08-01T10:47:07;1.90;;;1.60;;
7899;SDS011;3995;50.856;4.404;2022-08-01T10:49:38;2.00;;;1.70;;
7899;SDS011;3995;50.856;4.404;2022-08-01T10:52:13;4.20;;;1.80;;
7899;SDS011;3995;50.856;4.404;2022-08-01T10:54:41;1.90;;;1.70;;
7899;SDS011;3995;50.856;4.404;2022-08-01T10:57:09;2.37;;;1.80;;
7899;SDS011;3995;50.856;4.404;2022-08-01T10:59:47;2.27;;;1.83;;
7899;SDS011;3995;50.856;4.404;2022-08-01T11:02:19;4.50;;;1.50;;
7899;SDS011;3995;50.856;4.404;2022-08-01T11:04:54;3.30;;;1.80;;
7899;SDS011;3995;50.856;4.404;2022-08-01T11:07:34;2.50;;;1.70;;
7899;SDS011;3995;50.856;4.404;2022-08-01T11:10:10;1.80;;;1.63;;
7899;SDS011;3995;50.856;4.404;2022-08-01T11:12:49;5.53;;;1.40;;
7899;SDS011;3995;50.856;4.404;2022-08-01T11:15:22;2.23;;;1.53;;
7899;SDS011;3995;50.856;4.404;2022-08-01T11:18:00;1.60;;;1.27;;
7899;SDS011;3995;50.856;4.404;2022-08-01T11:20:29;3.30;;;1.17;;
7899;SDS011;3995;50.856;4.404;2022-08-01T11:26:07;1.30;;;1.00;;
7899;SDS011;3995;50.856;4.404;2022-08-01T11:28:38;2.10;;;1.10;;
7899;SDS011;3995;50.856;4.404;2022-08-01T11:33:59;2.30;;;1.20;;
7899;SDS011;3995;50.856;4.404;2022-08-01T11:36:26;1.63;;;1.23;;
7899;SDS011;3995;50.856;4.404;2022-08-01T11:39:16;2.77;;;1.30;;
7899;SDS011;3995;50.856;4.404;2022-08-01T11:41:44;1.63;;;0.90;;
7899;SDS011;3995;50.856;4.404;2022-08-01T11:44:16;4.13;;;1.20;;
7899;SDS011;3995;50.856;4.404;2022-08-01T11:46:45;4.90;;;1.00;;
7899;SDS011;3995;50.856;4.404;2022-08-01T11:49:27;3.33;;;1.23;;
7899;SDS011;3995;50.856;4.404;2022-08-01T11:51:58;1.30;;;1.00;;
7899;SDS011;3995;50.856;4.404;2022-08-01T11:54:28;2.90;;;1.10;;
7899;SDS011;3995;50.856;4.404;2022-08-01T11:56:57;1.70;;;0.90;;
7899;SDS011;3995;50.856;4.404;2022-08-01T11:59:26;1.80;;;1.13;;
7899;SDS011;3995;50.856;4.404;2022-08-01T12:01:54;2.03;;;1.27;;
7899;SDS011;3995;50.856;4.404;2022-08-01T12:04:21;2.50;;;1.40;;
7899;SDS011;3995;50.856;4.404;2022-08-01T12:06:48;8.83;;;1.20;;
7899;SDS011;3995;50.856;4.404;2022-08-01T12:09:16;1.60;;;0.87;;
7899;SDS011;3995;50.856;4.404;2022-08-01T12:11:44;6.73;;;1.60;;
7899;SDS011;3995;50.856;4.404;2022-08-01T12:14:16;5.73;;;1.10;;
7899;SDS011;3995;50.856;4.404;2022-08-01T12:16:52;2.03;;;1.17;;
7899;SDS011;3995;50.856;4.404;2022-08-01T12:19:20;2.33;;;1.30;;
7899;SDS011;3995;50.856;4.404;2022-08-01T12:22:04;6.13;;;1.50;;
7899;SDS011;3995;50.856;4.404;2022-08-01T12:24:33;4.73;;;1.10;;
7899;SDS011;3995;50.856;4.404;2022-08-01T12:27:01;1.93;;;1.20;;
7899;SDS011;3995;50.856;4.404;2022-08-01T12:29:35;3.23;;;1.20;;
7899;SDS011;3995;50.856;4.404;2022-08-01T12:32:15;2.07;;;1.10;;
7899;SDS011;3995;50.856;4.404;2022-08-01T12:34:48;1.67;;;1.27;;
7899;SDS011;3995;50.856;4.404;2022-08-01T12:37:16;1.27;;;1.00;;
7899;SDS011;3995;50.856;4.404;2022-08-01T12:39:43;3.00;;;1.07;;
7899;SDS011;3995;50.856;4.404;2022-08-01T12:42:11;2.50;;;1.20;;
7899;SDS011;3995;50.856;4.404;2022-08-01T12:44:38;2.53;;;1.40;;
7899;SDS011;3995;50.856;4.404;2022-08-01T12:47:09;3.47;;;1.50;;
7899;SDS011;3995;50.856;4.404;2022-08-01T12:49:37;4.10;;;1.27;;
7899;SDS011;3995;50.856;4.404;2022-08-01T12:52:06;1.87;;;1.30;;
7899;SDS011;3995;50.856;4.404;2022-08-01T12:57:33;2.50;;;1.30;;
7899;SDS011;3995;50.856;4.404;2022-08-01T13:00:07;3.13;;;1.20;;
7899;SDS011;3995;50.856;4.404;2022-08-01T13:02:38;1.27;;;1.10;;
7899;SDS011;3995;50.856;4.404;2022-08-01T13:05:06;1.20;;;1.07;;
7899;SDS011;3995;50.856;4.404;2022-08-01T13:07:35;3.27;;;1.43;;
7899;SDS011;3995;50.856;4.404;2022-08-01T13:10:04;1.60;;;1.00;;
7899;SDS011;3995;50.856;4.404;2022-08-01T13:12:32;4.00;;;1.20;;
7899;SDS011;3995;50.856;4.404;2022-08-01T13:14:59;7.33;;;1.30;;
7899;SDS011;3995;50.856;4.404;2022-08-01T13:17:42;4.63;;;1.30;;
7899;SDS011;3995;50.856;4.404;2022-08-01T13:20:09;5.70;;;1.20;;
7899;SDS011;3995;50.856;4.404;2022-08-01T13:22:47;3.93;;;1.40;;
7899;SDS011;3995;50.856;4.404;2022-08-01T13:25:15;2.63;;;1.20;;
7899;SDS011;3995;50.856;4.404;2022-08-01T13:27:42;3.10;;;1.23;;
7899;SDS011;3995;50.856;4.404;2022-08-01T13:30:10;2.60;;;1.67;;
7899;SDS011;3995;50.856;4.404;2022-08-01T13:32:38;6.00;;;1.40;;
7899;SDS011;3995;50.856;4.404;2022-08-01T13:35:09;2.13;;;1.13;;
7899;SDS011;3995;50.856;4.404;2022-08-01T13:37:38;1.23;;;1.10;;
7899;SDS011;3995;50.856;4.404;2022-08-01T13:40:08;3.73;;;1.10;;
7899;SDS011;3995;50.856;4.404;2022-08-01T13:42:35;2.20;;;1.33;;
7899;SDS011;3995;50.856;4.404;2022-08-01T13:45:04;2.10;;;1.30;;
7899;SDS011;3995;50.856;4.404;2022-08-01T13:47:35;2.90;;;1.37;;
7899;SDS011;3995;50.856;4.404;2022-08-01T13:50:03;4.80;;;1.50;;
7899;SDS011;3995;50.856;4.404;2022-08-01T13:52:32;4.60;;;1.17;;
7899;SDS011;3995;50.856;4.404;2022-08-01T13:54:59;1.53;;;1.00;;
7899;SDS011;3995;50.856;4.404;2022-08-01T13:57:27;2.47;;;1.23;;
7899;SDS011;3995;50.856;4.404;2022-08-01T13:59:54;2.13;;;1.40;;
7899;SDS011;3995;50.856;4.404;2022-08-01T14:02:24;3.23;;;1.20;;
7899;SDS011;3995;50.856;4.404;2022-08-01T14:04:54;4.57;;;1.20;;
7899;SDS011;3995;50.856;4.404;2022-08-01T14:07:23;2.30;;;1.30;;
7899;SDS011;3995;50.856;4.404;2022-08-01T14:09:52;3.77;;;1.20;;
7899;SDS011;3995;50.856;4.404;2022-08-01T14:12:19;2.03;;;1.50;;
7899;SDS011;3995;50.856;4.404;2022-08-01T14:14:47;1.50;;;1.03;;
7899;SDS011;3995;50.856;4.404;2022-08-01T14:17:14;2.10;;;1.33;;
7899;SDS011;3995;50.856;4.404;2022-08-01T14:19:41;4.37;;;1.50;;
7899;SDS011;3995;50.856;4.404;2022-08-01T14:22:08;1.73;;;1.20;;
7899;SDS011;3995;50.856;4.404;2022-08-01T14:24:35;2.93;;;1.37;;
7899;SDS011;3995;50.856;4.404;2022-08-01T14:27:04;2.87;;;1.43;;
7899;SDS011;3995;50.856;4.404;2022-08-01T14:29:31;1.77;;;1.00;;
7899;SDS011;3995;50.856;4.404;2022-08-01T14:31:58;6.53;;;1.93;;
7899;SDS011;3995;50.856;4.404;2022-08-01T14:34:27;2.23;;;1.40;;
7899;SDS011;3995;50.856;4.404;2022-08-01T14:36:54;3.67;;;1.20;;
7899;SDS011;3995;50.856;4.404;2022-08-01T14:39:21;1.83;;;1.40;;
7899;SDS011;3995;50.856;4.404;2022-08-01T14:41:48;2.60;;;1.37;;
7899;SDS011;3995;50.856;4.404;2022-08-01T14:44:17;1.60;;;1.00;;
7899;SDS011;3995;50.856;4.404;2022-08-01T14:46:44;2.40;;;1.40;;
7899;SDS011;3995;50.856;4.404;2022-08-01T14:49:13;2.50;;;1.30;;
7899;SDS011;3995;50.856;4.404;2022-08-01T14:51:40;3.00;;;1.20;;
7899;SDS011;3995;50.856;4.404;2022-08-01T14:54:07;1.67;;;1.10;;
7899;SDS011;3995;50.856;4.404;2022-08-01T14:56:35;8.93;;;1.30;;
7899;SDS011;3995;50.856;4.404;2022-08-01T14:59:02;3.60;;;1.20;;
7899;SDS011;3995;50.856;4.404;2022-08-01T15:01:30;2.03;;;1.20;;
7899;SDS011;3995;50.856;4.404;2022-08-01T15:03:57;1.93;;;1.30;;
7899;SDS011;3995;50.856;4.404;2022-08-01T15:06:25;2.20;;;0.90;;
7899;SDS011;3995;50.856;4.404;2022-08-01T15:08:53;5.47;;;1.70;;
7899;SDS011;3995;50.856;4.404;2022-08-01T15:11:20;6.30;;;1.93;;
7899;SDS011;3995;50.856;4.404;2022-08-01T15:13:48;2.43;;;1.00;;
7899;SDS011;3995;50.856;4.404;2022-08-01T15:16:36;1.30;;;1.00;;
7899;SDS011;3995;50.856;4.404;2022-08-01T15:19:04;2.00;;;1.00;;
7899;SDS011;3995;50.856;4.404;2022-08-01T15:21:31;1.40;;;1.20;;
7899;SDS011;3995;50.856;4.404;2022-08-01T15:23:58;1.97;;;0.90;;
7899;SDS011;3995;50.856;4.404;2022-08-01T15:26:25;7.13;;;0.90;;
7899;SDS011;3995;50.856;4.404;2022-08-01T15:28:54;3.33;;;1.20;;
7899;SDS011;3995;50.856;4.404;2022-08-01T15:31:22;2.53;;;1.17;;
7899;SDS011;3995;50.856;4.404;2022-08-01T15:33:50;3.50;;;1.23;;
7899;SDS011;3995;50.856;4.404;2022-08-01T15:36:17;1.40;;;1.00;;
7899;SDS011;3995;50.856;4.404;2022-08-01T15:38:44;3.23;;;1.20;;
7899;SDS011;3995;50.856;4.404;2022-08-01T15:41:11;2.70;;;1.20;;